Startpagina
METAR-TAF:

METAR-TAF

Vliegvelden :

Gran Canaria, Spanje

Aeropuerto de Gran Canaria

breedte: 27-56N, lengte: 015-23W, hoogte: 23 m

Actueel weer

Dit bericht is 24 minuten geleden gemaakt, om 15:00 UTC
Wind 28 kt uit het noorden
Temperatuur 26°C
Vochtigheid 58%
Druk 1014 hPa
Zicht 10 km of meer
Verspreide wolken op 3200 ft

METAR: GCLP 221500Z 01028KT 9999 SCT032 26/17 Q1014 WS ALL RWY NOSIG

Tijdstip: 16:24 (15:24 UTC)

Verwachting

Dit bericht is 1 uur en het 24 minuten geleden gemaakt, om 14:00 UTC
Verwachting geldig van 22 om 15 UTC tot 23 om 15 UTC
Wind 25 kt uit het noorden
Zicht 10 km of meer
Verspreide wolken op 3500 ft
Tijdelijke
van 22 om 15 UTC tot 23 om 15 UTC
Wind 25 kt uit het noorden met uitschieters tot 35 kt

TAF: GCLP 221400Z 2215/2315 01025KT 9999 SCT035 TX27/2314Z TN22/2306Z TEMPO 2215/2315 01025G35KT

Waarnemingen en weersverwachtingen van meer dan 4000 vliegvelden (METAR en TAF).

De beschikbare stations zijn de gele en rode punten op de kaart.

Ga met uw muis naar het station om de naam te zien.

Klik dan om waarnemingen en weersverwachtingen te zien.

kaart wijzigen: klik op de groene knoppen met een zwart kruis om in te zoomen, op de groene knop met een streepje om uit te zoomen of op de groene pijlen voor aangrenzende kaarten.


METAR-TAF: